createdAt,value
2022-10-02T00:02:32.981Z,12.10
2022-10-02T00:05:05.226Z,12.10
2022-10-02T00:07:49.954Z,12.10
2022-10-02T00:10:20.088Z,12.10
2022-10-02T00:12:53.049Z,12.10
2022-10-02T00:15:25.769Z,12.00
2022-10-02T00:17:56.451Z,12.00
2022-10-02T00:20:31.287Z,12.00
2022-10-02T00:23:14.821Z,12.00
2022-10-02T00:26:06.219Z,12.00
2022-10-02T00:28:47.363Z,12.00
2022-10-02T00:31:26.191Z,12.00
2022-10-02T00:34:21.739Z,11.90
2022-10-02T00:37:20.814Z,11.90
2022-10-02T00:40:39.867Z,11.90
2022-10-02T00:43:18.743Z,11.90
2022-10-02T00:46:20.823Z,12.00
2022-10-02T00:49:11.244Z,12.00
2022-10-02T00:51:45.221Z,11.90
2022-10-02T00:54:48.376Z,11.90
2022-10-02T00:57:37.021Z,11.90
2022-10-02T01:00:14.608Z,11.90
2022-10-02T01:02:41.290Z,12.00
2022-10-02T01:05:09.161Z,12.00
2022-10-02T01:07:42.131Z,12.00
2022-10-02T01:10:13.587Z,11.90
2022-10-02T01:12:40.632Z,11.90
2022-10-02T01:15:15.948Z,11.90
2022-10-02T01:17:43.182Z,12.00
2022-10-02T01:20:19.385Z,12.00
2022-10-02T01:23:19.900Z,12.10
2022-10-02T01:25:47.052Z,12.10
2022-10-02T01:28:14.123Z,12.10
2022-10-02T01:30:43.796Z,12.10
2022-10-02T01:33:12.435Z,12.10
2022-10-02T01:35:39.811Z,12.10
2022-10-02T01:38:12.364Z,12.20
2022-10-02T01:40:40.838Z,12.10
2022-10-02T01:43:22.027Z,12.20
2022-10-02T01:46:11.257Z,12.20
2022-10-02T01:49:02.824Z,12.30
2022-10-02T01:52:02.830Z,12.30
2022-10-02T01:54:58.528Z,12.40
2022-10-02T01:57:43.356Z,12.40
2022-10-02T02:00:19.211Z,12.40
2022-10-02T02:02:49.313Z,12.50
2022-10-02T02:05:43.851Z,12.60
2022-10-02T02:08:42.555Z,12.70
2022-10-02T02:11:12.381Z,12.70
2022-10-02T02:13:48.296Z,12.80
2022-10-02T02:16:27.637Z,12.80
2022-10-02T02:19:05.015Z,12.80
2022-10-02T02:21:58.755Z,12.80
2022-10-02T02:24:37.727Z,12.90
2022-10-02T02:27:06.053Z,12.80
2022-10-02T02:29:37.251Z,12.80
2022-10-02T02:32:08.526Z,12.80
2022-10-02T02:34:46.901Z,12.70
2022-10-02T02:37:19.226Z,12.70
2022-10-02T02:40:17.270Z,12.70
2022-10-02T02:42:56.430Z,12.70
2022-10-02T02:45:29.765Z,12.80
2022-10-02T02:48:02.546Z,12.80
2022-10-02T02:50:41.421Z,12.90
2022-10-02T02:53:20.762Z,12.90
2022-10-02T02:56:00.675Z,12.90
2022-10-02T02:58:34.275Z,12.90
2022-10-02T03:01:01.156Z,12.90
2022-10-02T03:03:27.958Z,12.90
2022-10-02T03:06:03.289Z,12.90
2022-10-02T03:08:35.310Z,13.00
2022-10-02T03:11:41.954Z,13.00
2022-10-02T03:14:29.172Z,13.00
2022-10-02T03:17:31.211Z,13.10
2022-10-02T03:20:36.452Z,13.10
2022-10-02T03:23:47.936Z,13.00
2022-10-02T03:26:38.527Z,13.10
2022-10-02T03:29:12.256Z,13.20
2022-10-02T03:31:40.445Z,13.20
2022-10-02T03:34:08.109Z,13.20
2022-10-02T03:36:35.526Z,13.30
2022-10-02T03:39:25.232Z,13.30
2022-10-02T03:41:52.330Z,13.20
2022-10-02T03:44:19.048Z,13.30
2022-10-02T03:46:46.055Z,13.40
2022-10-02T03:49:12.812Z,13.40
2022-10-02T03:51:39.598Z,13.40
2022-10-02T03:54:17.671Z,13.50
2022-10-02T03:56:56.922Z,13.50
2022-10-02T03:59:46.600Z,13.60
2022-10-02T04:02:19.866Z,13.60
2022-10-02T04:04:54.466Z,13.60
2022-10-02T04:07:28.880Z,13.60
2022-10-02T04:10:21.893Z,13.60
2022-10-02T04:12:53.281Z,13.60
2022-10-02T04:15:23.234Z,13.60
2022-10-02T04:18:25.162Z,13.50
2022-10-02T04:21:13.991Z,13.40
2022-10-02T04:23:55.150Z,13.40
2022-10-02T04:26:35.652Z,13.30
2022-10-02T04:29:25.247Z,13.30
2022-10-02T04:31:55.760Z,13.30
2022-10-02T04:34:22.601Z,13.20
2022-10-02T04:37:01.472Z,13.20
2022-10-02T04:39:46.824Z,13.30
2022-10-02T04:42:41.616Z,13.40
2022-10-02T04:45:37.942Z,13.40
2022-10-02T04:48:25.748Z,13.40
2022-10-02T04:51:05.723Z,13.40
2022-10-02T04:53:50.514Z,13.40
2022-10-02T04:56:20.344Z,13.30
2022-10-02T04:59:01.880Z,13.40
2022-10-02T05:01:28.759Z,13.40
2022-10-02T05:04:14.000Z,13.40
2022-10-02T05:07:06.293Z,13.40
2022-10-02T05:09:44.985Z,13.50
2022-10-02T05:12:30.466Z,13.50
2022-10-02T05:15:20.358Z,13.60
2022-10-02T05:18:02.111Z,13.60
2022-10-02T05:20:54.997Z,13.60
2022-10-02T05:23:36.761Z,13.60
2022-10-02T05:26:28.520Z,13.60
2022-10-02T05:29:09.733Z,13.60
2022-10-02T05:31:52.737Z,13.60
2022-10-02T05:34:31.247Z,13.60
2022-10-02T05:37:14.362Z,13.70
2022-10-02T05:40:02.433Z,13.80
2022-10-02T05:42:43.152Z,13.70
2022-10-02T05:45:27.694Z,13.80
2022-10-02T05:48:06.378Z,13.80
2022-10-02T05:50:36.788Z,13.90
2022-10-02T05:53:34.558Z,14.00
2022-10-02T05:56:16.245Z,14.00
2022-10-02T05:58:54.579Z,14.00
2022-10-02T06:01:35.892Z,14.10
2022-10-02T06:04:32.111Z,14.10
2022-10-02T06:07:08.069Z,14.10
2022-10-02T06:09:43.219Z,14.10
2022-10-02T06:12:14.910Z,14.20
2022-10-02T06:14:50.989Z,14.30
2022-10-02T06:17:20.636Z,14.40
2022-10-02T06:20:19.485Z,14.40
2022-10-02T06:22:55.355Z,14.30
2022-10-02T06:25:29.909Z,14.40
2022-10-02T06:28:16.997Z,14.40
2022-10-02T06:30:49.633Z,14.40
2022-10-02T06:33:29.480Z,14.40
2022-10-02T06:36:08.461Z,14.40
2022-10-02T06:39:05.694Z,14.60
2022-10-02T06:41:41.221Z,14.80
2022-10-02T06:44:19.972Z,14.80
2022-10-02T06:46:58.274Z,14.50
2022-10-02T06:49:47.311Z,14.50
2022-10-02T06:52:54.316Z,14.50
2022-10-02T06:55:40.808Z,14.40
2022-10-02T06:58:23.194Z,14.40
2022-10-02T07:01:10.540Z,14.40
2022-10-02T07:03:58.831Z,14.50
2022-10-02T07:06:56.497Z,14.60
2022-10-02T07:09:42.062Z,14.80
2022-10-02T07:12:32.167Z,14.80
2022-10-02T07:15:22.003Z,14.80
2022-10-02T07:17:54.187Z,14.80
2022-10-02T07:20:23.888Z,14.80
2022-10-02T07:23:16.297Z,14.80
2022-10-02T07:26:07.098Z,15.00
2022-10-02T07:29:11.258Z,15.20
2022-10-02T07:32:17.853Z,15.30
2022-10-02T07:34:56.517Z,15.20
2022-10-02T07:37:42.218Z,15.10
2022-10-02T07:40:28.877Z,15.10
2022-10-02T07:43:09.978Z,15.10
2022-10-02T07:45:42.169Z,15.10
2022-10-02T07:48:33.968Z,15.30
2022-10-02T07:51:42.949Z,15.20
2022-10-02T07:54:15.974Z,15.20
2022-10-02T07:56:45.698Z,15.20
2022-10-02T07:59:16.588Z,15.30
2022-10-02T08:01:46.596Z,15.50
2022-10-02T08:04:36.875Z,15.50
2022-10-02T08:07:05.246Z,15.50
2022-10-02T08:09:39.495Z,15.50
2022-10-02T08:12:29.310Z,15.40
2022-10-02T08:14:58.619Z,15.40
2022-10-02T08:17:50.001Z,15.40
2022-10-02T08:20:16.976Z,15.50
2022-10-02T08:22:48.891Z,15.50
2022-10-02T08:25:26.884Z,15.70
2022-10-02T08:28:20.242Z,15.90
2022-10-02T08:30:47.202Z,16.10
2022-10-02T08:33:22.721Z,16.50
2022-10-02T08:36:19.824Z,16.50
2022-10-02T08:38:57.340Z,16.40
2022-10-02T08:41:24.233Z,16.10
2022-10-02T08:44:34.152Z,16.10
2022-10-02T08:47:33.047Z,16.10
2022-10-02T08:50:14.926Z,15.90
2022-10-02T08:53:09.543Z,16.00
2022-10-02T08:55:58.993Z,16.20
2022-10-02T08:59:07.032Z,16.20
2022-10-02T09:02:00.097Z,16.30
2022-10-02T09:04:41.947Z,16.30
2022-10-02T09:07:17.482Z,16.30
2022-10-02T09:09:46.935Z,16.20
2022-10-02T09:12:41.494Z,16.10
2022-10-02T09:15:47.175Z,16.10
2022-10-02T09:18:51.592Z,16.10
2022-10-02T09:21:39.650Z,16.50
2022-10-02T09:24:12.099Z,16.40
2022-10-02T09:27:00.638Z,16.40
2022-10-02T09:29:58.854Z,16.70
2022-10-02T09:32:43.154Z,16.60
2022-10-02T09:35:34.093Z,16.60
2022-10-02T09:38:29.592Z,16.50
2022-10-02T09:41:05.293Z,16.90
2022-10-02T09:44:08.238Z,17.00
2022-10-02T09:47:08.596Z,17.10
2022-10-02T09:50:19.251Z,17.40
2022-10-02T09:53:12.164Z,17.50
2022-10-02T09:55:53.732Z,17.50
2022-10-02T09:58:26.348Z,17.10
2022-10-02T10:01:14.705Z,17.00
2022-10-02T10:04:18.972Z,17.00
2022-10-02T10:06:57.950Z,17.00
2022-10-02T10:09:57.722Z,16.70
2022-10-02T10:12:43.474Z,16.70
2022-10-02T10:15:43.999Z,16.90
2022-10-02T10:18:42.870Z,17.00
2022-10-02T10:21:47.300Z,16.90
2022-10-02T10:24:17.050Z,17.10
2022-10-02T10:27:22.831Z,17.20
2022-10-02T10:30:11.204Z,17.50
2022-10-02T10:32:41.122Z,17.30
2022-10-02T10:35:16.852Z,17.00
2022-10-02T10:38:02.158Z,17.00
2022-10-02T10:41:03.300Z,16.80
2022-10-02T10:43:51.347Z,16.80
2022-10-02T10:46:35.236Z,17.10
2022-10-02T10:49:26.464Z,17.10
2022-10-02T10:52:23.099Z,16.80
2022-10-02T10:54:55.235Z,16.70
2022-10-02T10:57:51.359Z,16.50
2022-10-02T11:00:26.518Z,16.50
2022-10-02T11:03:15.378Z,16.40
2022-10-02T11:05:52.074Z,16.60
2022-10-02T11:08:39.696Z,16.60
2022-10-02T11:11:19.873Z,16.50
2022-10-02T11:14:07.652Z,16.80
2022-10-02T11:16:41.568Z,17.10
2022-10-02T11:19:21.506Z,17.60
2022-10-02T11:22:15.550Z,17.70
2022-10-02T11:25:02.014Z,17.90
2022-10-02T11:27:37.569Z,17.50
2022-10-02T11:30:22.057Z,17.40
2022-10-02T11:33:08.767Z,17.40
2022-10-02T11:36:04.870Z,17.30
2022-10-02T11:39:00.862Z,17.10
2022-10-02T11:41:43.727Z,16.70
2022-10-02T11:44:23.252Z,16.60
2022-10-02T11:47:28.748Z,16.50
2022-10-02T11:50:13.205Z,16.40
2022-10-02T11:53:18.904Z,16.30
2022-10-02T11:56:15.224Z,16.40
2022-10-02T11:59:10.609Z,16.70
2022-10-02T12:01:56.129Z,16.70
2022-10-02T12:04:40.710Z,16.70
2022-10-02T12:07:22.271Z,16.80
2022-10-02T12:10:14.157Z,16.80
2022-10-02T12:12:43.740Z,17.00
2022-10-02T12:15:36.368Z,16.90
2022-10-02T12:18:22.240Z,16.80
2022-10-02T12:21:39.495Z,17.00
2022-10-02T12:24:59.228Z,16.90
2022-10-02T12:27:31.762Z,17.00
2022-10-02T12:30:22.522Z,17.30
2022-10-02T12:33:01.485Z,17.40
2022-10-02T12:35:58.610Z,17.50
2022-10-02T12:38:37.690Z,17.50
2022-10-02T12:41:24.252Z,17.50
2022-10-02T12:44:22.035Z,17.50
2022-10-02T12:47:13.295Z,17.50
2022-10-02T12:49:50.802Z,17.50
2022-10-02T12:52:40.626Z,17.30
2022-10-02T12:55:16.479Z,17.00
2022-10-02T12:58:04.696Z,16.80
2022-10-02T13:00:40.336Z,16.70
2022-10-02T13:03:36.648Z,16.80
2022-10-02T13:06:10.780Z,16.80
2022-10-02T13:08:41.516Z,16.80
2022-10-02T13:11:14.021Z,16.80
2022-10-02T13:13:49.540Z,16.80
2022-10-02T13:16:31.614Z,16.90
2022-10-02T13:19:30.510Z,17.00
2022-10-02T13:22:19.931Z,17.20
2022-10-02T13:25:01.459Z,17.10
2022-10-02T13:27:51.232Z,17.10
2022-10-02T13:30:23.948Z,17.50
2022-10-02T13:33:04.428Z,17.70
2022-10-02T13:35:36.767Z,17.90
2022-10-02T13:38:24.307Z,17.90
2022-10-02T13:41:09.091Z,17.90
2022-10-02T13:44:01.448Z,17.30
2022-10-02T13:46:51.953Z,16.90
2022-10-02T13:49:32.765Z,16.50
2022-10-02T13:52:25.729Z,16.30
2022-10-02T13:55:12.953Z,16.30
2022-10-02T13:58:11.500Z,16.20
2022-10-02T14:00:38.464Z,16.00
2022-10-02T14:03:21.032Z,15.80
2022-10-02T14:05:58.060Z,15.70
2022-10-02T14:08:27.901Z,15.60
2022-10-02T14:11:22.621Z,15.60
2022-10-02T14:14:03.134Z,15.70
2022-10-02T14:16:47.532Z,15.60
2022-10-02T14:19:29.203Z,15.50
2022-10-02T14:22:34.143Z,15.50
2022-10-02T14:25:07.158Z,15.50
2022-10-02T14:28:08.086Z,15.60
2022-10-02T14:30:50.205Z,15.50
2022-10-02T14:33:36.354Z,15.40
2022-10-02T14:36:20.448Z,15.30
2022-10-02T14:39:17.799Z,15.30
2022-10-02T14:42:01.412Z,15.40
2022-10-02T14:44:34.412Z,15.60
2022-10-02T14:47:19.166Z,15.70
2022-10-02T14:50:11.119Z,15.90
2022-10-02T14:52:51.629Z,16.10
2022-10-02T14:55:21.253Z,16.20
2022-10-02T14:57:56.920Z,16.40
2022-10-02T15:00:25.544Z,16.50
2022-10-02T15:03:17.818Z,16.50
2022-10-02T15:06:02.059Z,16.50
2022-10-02T15:08:39.761Z,16.40
2022-10-02T15:11:21.240Z,16.40
2022-10-02T15:13:57.714Z,16.30
2022-10-02T15:16:59.759Z,16.20
2022-10-02T15:19:39.026Z,16.30
2022-10-02T15:22:19.387Z,16.30
2022-10-02T15:24:58.780Z,16.30
2022-10-02T15:27:43.061Z,16.20
2022-10-02T15:30:13.483Z,16.10
2022-10-02T15:33:11.265Z,16.20
2022-10-02T15:35:54.638Z,16.20
2022-10-02T15:38:43.161Z,16.20
2022-10-02T15:41:12.866Z,16.20
2022-10-02T15:44:10.082Z,16.20
2022-10-02T15:46:50.125Z,16.10
2022-10-02T15:49:31.039Z,16.10
2022-10-02T15:52:24.050Z,16.20
2022-10-02T15:55:27.896Z,16.20
2022-10-02T15:58:10.600Z,16.20
2022-10-02T16:01:03.989Z,16.10
2022-10-02T16:03:46.509Z,16.10
2022-10-02T16:06:38.765Z,16.00
2022-10-02T16:09:20.937Z,15.90
2022-10-02T16:12:02.774Z,15.90
2022-10-02T16:14:44.864Z,15.70
2022-10-02T16:17:29.817Z,15.60
2022-10-02T16:20:25.307Z,15.50
2022-10-02T16:23:11.988Z,15.40
2022-10-02T16:26:01.898Z,15.30
2022-10-02T16:28:55.185Z,15.20
2022-10-02T16:31:37.228Z,15.10
2022-10-02T16:34:31.297Z,15.10
2022-10-02T16:37:07.045Z,15.10
2022-10-02T16:39:43.677Z,15.00
2022-10-02T16:42:21.189Z,15.00
2022-10-02T16:45:16.102Z,14.90
2022-10-02T16:47:50.738Z,14.80
2022-10-02T16:50:44.037Z,14.70
2022-10-02T16:53:35.130Z,14.60
2022-10-02T16:56:17.867Z,14.50
2022-10-02T16:59:00.538Z,14.50
2022-10-02T17:01:53.358Z,14.40
2022-10-02T17:04:45.247Z,14.30
2022-10-02T17:07:41.314Z,14.10
2022-10-02T17:10:30.128Z,14.00
2022-10-02T17:13:23.959Z,13.90
2022-10-02T17:16:16.364Z,13.80
2022-10-02T17:18:56.432Z,13.80
2022-10-02T17:21:39.755Z,13.70
2022-10-02T17:24:38.824Z,13.70
2022-10-02T17:27:33.509Z,13.70
2022-10-02T17:30:24.320Z,13.70
2022-10-02T17:33:07.738Z,13.70
2022-10-02T17:36:12.082Z,13.70
2022-10-02T17:39:08.903Z,13.60
2022-10-02T17:41:38.519Z,13.50
2022-10-02T17:44:28.187Z,13.50
2022-10-02T17:47:17.693Z,13.40
2022-10-02T17:50:07.553Z,13.30
2022-10-02T17:53:28.747Z,13.30
2022-10-02T17:56:27.649Z,13.10
2022-10-02T17:59:00.477Z,13.10
2022-10-02T18:01:33.157Z,13.10
2022-10-02T18:04:00.071Z,13.00
2022-10-02T18:06:32.982Z,13.00
2022-10-02T18:09:08.885Z,13.00
2022-10-02T18:11:41.846Z,13.00
2022-10-02T18:14:46.741Z,13.00
2022-10-02T18:18:07.973Z,13.00
2022-10-02T18:20:43.445Z,13.00
2022-10-02T18:23:44.497Z,13.00
2022-10-02T18:26:32.755Z,12.90
2022-10-02T18:29:02.719Z,12.80
2022-10-02T18:31:54.199Z,12.80
2022-10-02T18:34:41.421Z,12.90
2022-10-02T18:37:28.951Z,12.90
2022-10-02T18:40:22.282Z,12.90
2022-10-02T18:43:18.580Z,12.90
2022-10-02T18:46:00.287Z,12.90
2022-10-02T18:48:45.218Z,12.90
2022-10-02T18:51:33.830Z,13.00
2022-10-02T18:54:22.726Z,13.00
2022-10-02T18:57:07.616Z,12.90
2022-10-02T18:59:59.762Z,12.80
2022-10-02T19:03:01.431Z,12.90
2022-10-02T19:05:36.899Z,13.00
2022-10-02T19:08:03.807Z,13.00
2022-10-02T19:10:33.662Z,13.10
2022-10-02T19:13:18.111Z,13.20
2022-10-02T19:15:47.869Z,13.30
2022-10-02T19:18:25.514Z,13.30
2022-10-02T19:21:01.637Z,13.40
2022-10-02T19:23:37.511Z,13.40
2022-10-02T19:26:28.015Z,13.30
2022-10-02T19:29:05.500Z,13.30
2022-10-02T19:31:39.637Z,13.30
2022-10-02T19:34:17.263Z,13.30
2022-10-02T19:36:50.415Z,13.20
2022-10-02T19:39:30.700Z,13.20
2022-10-02T19:42:00.721Z,13.20
2022-10-02T19:44:35.828Z,13.20
2022-10-02T19:47:15.880Z,13.30
2022-10-02T19:49:46.730Z,13.30
2022-10-02T19:52:35.993Z,13.30
2022-10-02T19:55:24.200Z,13.40
2022-10-02T19:58:06.569Z,13.40
2022-10-02T20:00:38.778Z,13.40
2022-10-02T20:03:15.017Z,13.30
2022-10-02T20:05:44.210Z,13.10
2022-10-02T20:08:36.522Z,13.10
2022-10-02T20:11:20.482Z,12.90
2022-10-02T20:13:54.795Z,12.80
2022-10-02T20:16:23.031Z,12.70
2022-10-02T20:18:51.673Z,12.70
2022-10-02T20:21:43.337Z,12.70
2022-10-02T20:24:30.340Z,12.60
2022-10-02T20:27:05.432Z,12.50
2022-10-02T20:29:39.935Z,12.40
2022-10-02T20:32:21.367Z,12.30
2022-10-02T20:34:54.592Z,12.30
2022-10-02T20:37:31.453Z,12.30
2022-10-02T20:40:11.674Z,12.20
2022-10-02T20:43:05.427Z,12.10
2022-10-02T20:45:49.613Z,12.20
2022-10-02T20:49:03.157Z,12.10
2022-10-02T20:51:52.768Z,12.10
2022-10-02T20:54:19.817Z,12.10
2022-10-02T20:57:11.348Z,12.20
2022-10-02T21:00:02.252Z,12.00
2022-10-02T21:02:55.332Z,12.00
2022-10-02T21:05:22.179Z,12.00
2022-10-02T21:08:29.962Z,11.90
2022-10-02T21:11:14.603Z,11.90
2022-10-02T21:14:06.197Z,11.80
2022-10-02T21:16:36.506Z,11.80
2022-10-02T21:19:23.761Z,11.90
2022-10-02T21:22:18.702Z,11.80
2022-10-02T21:25:18.136Z,11.70
2022-10-02T21:28:06.204Z,11.70
2022-10-02T21:30:47.139Z,11.70
2022-10-02T21:33:24.561Z,11.60
2022-10-02T21:36:27.134Z,11.60
2022-10-02T21:39:11.900Z,11.60
2022-10-02T21:42:08.912Z,11.60
2022-10-02T21:44:54.727Z,11.60
2022-10-02T21:47:43.834Z,11.60
2022-10-02T21:50:40.246Z,11.60
2022-10-02T21:53:44.506Z,11.50
2022-10-02T21:56:32.847Z,11.60
2022-10-02T21:59:11.410Z,11.60
2022-10-02T22:02:09.302Z,11.50
2022-10-02T22:04:55.524Z,11.50
2022-10-02T22:08:12.546Z,11.50
2022-10-02T22:10:55.909Z,11.50
2022-10-02T22:13:23.323Z,11.40
2022-10-02T22:15:53.806Z,11.50
2022-10-02T22:18:26.877Z,11.40
2022-10-02T22:21:12.420Z,11.40
2022-10-02T22:24:19.083Z,11.30
2022-10-02T22:26:48.644Z,11.30
2022-10-02T22:29:35.312Z,11.20
2022-10-02T22:32:42.712Z,11.20
2022-10-02T22:35:33.604Z,11.20
2022-10-02T22:38:12.582Z,11.30
2022-10-02T22:41:25.834Z,11.20
2022-10-02T22:44:21.535Z,11.30
2022-10-02T22:47:05.835Z,11.30
2022-10-02T22:49:43.222Z,11.20
2022-10-02T22:52:33.466Z,11.10
2022-10-02T22:55:06.146Z,11.20
2022-10-02T22:57:37.429Z,11.20
2022-10-02T23:00:27.487Z,11.20
2022-10-02T23:03:13.141Z,11.20
2022-10-02T23:06:00.981Z,11.20
2022-10-02T23:08:39.753Z,11.30
2022-10-02T23:11:37.181Z,11.30
2022-10-02T23:14:29.047Z,11.30
2022-10-02T23:17:02.849Z,11.30
2022-10-02T23:19:55.652Z,11.30
2022-10-02T23:22:34.787Z,11.30
2022-10-02T23:25:25.020Z,11.30
2022-10-02T23:28:17.750Z,11.20
2022-10-02T23:30:49.458Z,11.20
2022-10-02T23:33:38.992Z,11.10
2022-10-02T23:36:26.204Z,11.10
2022-10-02T23:39:04.792Z,11.00
2022-10-02T23:41:40.356Z,10.90
2022-10-02T23:44:36.677Z,10.90
2022-10-02T23:47:44.061Z,10.80
2022-10-02T23:50:22.672Z,10.80
2022-10-02T23:53:02.039Z,10.70
2022-10-02T23:55:47.646Z,10.70
2022-10-02T23:58:27.177Z,10.60
